sensor_id;sensor_type;location;lat;lon;timestamp;temperature;humidity
61351;DHT22;47119;49.130;9.218;2022-10-19T00:01:22;17.04;82.82
61351;DHT22;47119;49.130;9.218;2022-10-19T00:03:51;17.05;82.92
61351;DHT22;47119;49.130;9.218;2022-10-19T00:06:21;17.02;82.97
61351;DHT22;47119;49.130;9.218;2022-10-19T00:08:50;17.04;82.95
61351;DHT22;47119;49.130;9.218;2022-10-19T00:11:18;17.05;82.90
61351;DHT22;47119;49.130;9.218;2022-10-19T00:13:47;17.05;82.90
61351;DHT22;47119;49.130;9.218;2022-10-19T00:16:15;17.05;82.86
61351;DHT22;47119;49.130;9.218;2022-10-19T00:18:44;17.02;82.91
61351;DHT22;47119;49.130;9.218;2022-10-19T00:21:15;17.02;82.86
61351;DHT22;47119;49.130;9.218;2022-10-19T00:23:44;17.02;82.87
61351;DHT22;47119;49.130;9.218;2022-10-19T00:26:12;17.02;82.90
61351;DHT22;47119;49.130;9.218;2022-10-19T00:28:39;17.01;82.80
61351;DHT22;47119;49.130;9.218;2022-10-19T00:31:16;17.01;82.73
61351;DHT22;47119;49.130;9.218;2022-10-19T00:33:44;17.02;82.80
61351;DHT22;47119;49.130;9.218;2022-10-19T00:36:15;17.01;82.81
61351;DHT22;47119;49.130;9.218;2022-10-19T00:38:43;17.02;82.74
61351;DHT22;47119;49.130;9.218;2022-10-19T00:41:10;17.01;82.78
61351;DHT22;47119;49.130;9.218;2022-10-19T00:43:54;17.01;82.98
61351;DHT22;47119;49.130;9.218;2022-10-19T00:46:29;16.99;83.05
61351;DHT22;47119;49.130;9.218;2022-10-19T00:49:03;17.01;83.24
61351;DHT22;47119;49.130;9.218;2022-10-19T00:51:38;17.02;83.22
61351;DHT22;47119;49.130;9.218;2022-10-19T00:54:08;17.02;83.30
61351;DHT22;47119;49.130;9.218;2022-10-19T00:56:39;17.05;83.29
61351;DHT22;47119;49.130;9.218;2022-10-19T00:59:15;17.05;83.36
61351;DHT22;47119;49.130;9.218;2022-10-19T01:01:47;17.04;83.41
61351;DHT22;47119;49.130;9.218;2022-10-19T01:04:21;17.05;83.44
61351;DHT22;47119;49.130;9.218;2022-10-19T01:06:50;17.07;83.51
61351;DHT22;47119;49.130;9.218;2022-10-19T01:09:21;17.07;83.47
61351;DHT22;47119;49.130;9.218;2022-10-19T01:12:00;17.07;83.48
61351;DHT22;47119;49.130;9.218;2022-10-19T01:14:39;17.07;83.43
61351;DHT22;47119;49.130;9.218;2022-10-19T01:17:22;17.09;83.43
61351;DHT22;47119;49.130;9.218;2022-10-19T01:20:21;17.09;83.43
61351;DHT22;47119;49.130;9.218;2022-10-19T01:23:22;17.09;83.47
61351;DHT22;47119;49.130;9.218;2022-10-19T01:26:13;17.08;83.58
61351;DHT22;47119;49.130;9.218;2022-10-19T01:29:02;17.09;83.52
61351;DHT22;47119;49.130;9.218;2022-10-19T01:31:46;17.08;83.56
61351;DHT22;47119;49.130;9.218;2022-10-19T01:34:25;17.09;83.47
61351;DHT22;47119;49.130;9.218;2022-10-19T01:37:01;17.08;83.54
61351;DHT22;47119;49.130;9.218;2022-10-19T01:39:42;17.09;83.63
61351;DHT22;47119;49.130;9.218;2022-10-19T01:42:45;17.09;83.61
61351;DHT22;47119;49.130;9.218;2022-10-19T01:45:27;17.09;83.60
61351;DHT22;47119;49.130;9.218;2022-10-19T01:48:04;17.07;83.56
61351;DHT22;47119;49.130;9.218;2022-10-19T01:50:42;17.09;83.60
61351;DHT22;47119;49.130;9.218;2022-10-19T01:53:16;17.08;83.54
61351;DHT22;47119;49.130;9.218;2022-10-19T01:55:49;17.08;83.56
61351;DHT22;47119;49.130;9.218;2022-10-19T01:58:24;17.08;83.54
61351;DHT22;47119;49.130;9.218;2022-10-19T02:00:56;17.08;83.56
61351;DHT22;47119;49.130;9.218;2022-10-19T02:03:28;17.04;83.54
61351;DHT22;47119;49.130;9.218;2022-10-19T02:05:58;17.05;83.49
61351;DHT22;47119;49.130;9.218;2022-10-19T02:08:35;17.04;83.58
61351;DHT22;47119;49.130;9.218;2022-10-19T02:11:06;16.99;83.56
61351;DHT22;47119;49.130;9.218;2022-10-19T02:13:34;17.01;83.47
61351;DHT22;47119;49.130;9.218;2022-10-19T02:16:06;17.01;83.50
61351;DHT22;47119;49.130;9.218;2022-10-19T02:18:45;16.99;83.42
61351;DHT22;47119;49.130;9.218;2022-10-19T02:21:17;16.99;83.29
61351;DHT22;47119;49.130;9.218;2022-10-19T02:23:45;16.96;83.42
61351;DHT22;47119;49.130;9.218;2022-10-19T02:26:15;16.98;83.31
61351;DHT22;47119;49.130;9.218;2022-10-19T02:28:45;16.96;83.33
61351;DHT22;47119;49.130;9.218;2022-10-19T02:31:13;16.99;83.25
61351;DHT22;47119;49.130;9.218;2022-10-19T02:33:41;16.98;83.22
61351;DHT22;47119;49.130;9.218;2022-10-19T02:36:08;16.96;83.16
61351;DHT22;47119;49.130;9.218;2022-10-19T02:38:36;16.95;83.12
61351;DHT22;47119;49.130;9.218;2022-10-19T02:41:10;16.99;83.11
61351;DHT22;47119;49.130;9.218;2022-10-19T02:43:45;16.98;83.05
61351;DHT22;47119;49.130;9.218;2022-10-19T02:46:19;16.96;83.07
61351;DHT22;47119;49.130;9.218;2022-10-19T02:48:56;16.95;83.04
61351;DHT22;47119;49.130;9.218;2022-10-19T02:51:27;16.95;83.08
61351;DHT22;47119;49.130;9.218;2022-10-19T02:53:56;16.95;83.20
61351;DHT22;47119;49.130;9.218;2022-10-19T02:56:23;16.96;82.99
61351;DHT22;47119;49.130;9.218;2022-10-19T02:58:53;16.96;83.00
61351;DHT22;47119;49.130;9.218;2022-10-19T03:01:23;16.96;82.94
61351;DHT22;47119;49.130;9.218;2022-10-19T03:03:56;16.94;82.96
61351;DHT22;47119;49.130;9.218;2022-10-19T03:06:23;16.92;82.95
61351;DHT22;47119;49.130;9.218;2022-10-19T03:08:52;16.92;83.03
61351;DHT22;47119;49.130;9.218;2022-10-19T03:11:22;16.88;83.00
61351;DHT22;47119;49.130;9.218;2022-10-19T03:13:51;16.91;82.97
61351;DHT22;47119;49.130;9.218;2022-10-19T03:16:18;16.94;82.86
61351;DHT22;47119;49.130;9.218;2022-10-19T03:18:47;16.94;82.88
61351;DHT22;47119;49.130;9.218;2022-10-19T03:21:18;16.94;82.88
61351;DHT22;47119;49.130;9.218;2022-10-19T03:23:48;16.91;82.86
61351;DHT22;47119;49.130;9.218;2022-10-19T03:26:17;16.89;82.88
61351;DHT22;47119;49.130;9.218;2022-10-19T03:28:44;16.89;82.95
61351;DHT22;47119;49.130;9.218;2022-10-19T03:31:15;16.88;82.89
61351;DHT22;47119;49.130;9.218;2022-10-19T03:33:42;16.94;82.83
61351;DHT22;47119;49.130;9.218;2022-10-19T03:36:21;16.91;82.86
61351;DHT22;47119;49.130;9.218;2022-10-19T03:38:50;16.91;82.80
61351;DHT22;47119;49.130;9.218;2022-10-19T03:41:21;16.89;82.80
61351;DHT22;47119;49.130;9.218;2022-10-19T03:43:50;16.87;82.73
61351;DHT22;47119;49.130;9.218;2022-10-19T03:46:18;16.88;82.74
61351;DHT22;47119;49.130;9.218;2022-10-19T03:48:45;16.89;82.71
61351;DHT22;47119;49.130;9.218;2022-10-19T03:51:14;16.92;82.64
61351;DHT22;47119;49.130;9.218;2022-10-19T03:53:45;16.89;82.74
61351;DHT22;47119;49.130;9.218;2022-10-19T03:56:15;16.85;82.83
61351;DHT22;47119;49.130;9.218;2022-10-19T03:58:45;16.82;82.86
61351;DHT22;47119;49.130;9.218;2022-10-19T04:01:18;16.81;82.81
61351;DHT22;47119;49.130;9.218;2022-10-19T04:03:47;16.81;82.82
61351;DHT22;47119;49.130;9.218;2022-10-19T04:06:21;16.81;82.74
61351;DHT22;47119;49.130;9.218;2022-10-19T04:09:03;16.82;82.68
61351;DHT22;47119;49.130;9.218;2022-10-19T04:11:33;16.85;82.73
61351;DHT22;47119;49.130;9.218;2022-10-19T04:14:03;16.85;82.70
61351;DHT22;47119;49.130;9.218;2022-10-19T04:16:33;16.88;82.65
61351;DHT22;47119;49.130;9.218;2022-10-19T04:19:00;16.89;82.66
61351;DHT22;47119;49.130;9.218;2022-10-19T04:21:29;16.87;82.63
61351;DHT22;47119;49.130;9.218;2022-10-19T04:24:01;16.85;82.55
61351;DHT22;47119;49.130;9.218;2022-10-19T04:26:29;16.85;82.67
61351;DHT22;47119;49.130;9.218;2022-10-19T04:29:00;16.87;82.65
61351;DHT22;47119;49.130;9.218;2022-10-19T04:31:28;16.87;82.57
61351;DHT22;47119;49.130;9.218;2022-10-19T04:33:55;16.88;82.57
61351;DHT22;47119;49.130;9.218;2022-10-19T04:36:25;16.87;82.57
61351;DHT22;47119;49.130;9.218;2022-10-19T04:38:52;16.82;82.58
61351;DHT22;47119;49.130;9.218;2022-10-19T04:41:21;16.85;82.54
61351;DHT22;47119;49.130;9.218;2022-10-19T04:43:54;16.84;82.61
61351;DHT22;47119;49.130;9.218;2022-10-19T04:46:23;16.85;82.59
61351;DHT22;47119;49.130;9.218;2022-10-19T04:48:52;16.82;82.51
61351;DHT22;47119;49.130;9.218;2022-10-19T04:51:20;16.82;82.42
61351;DHT22;47119;49.130;9.218;2022-10-19T04:53:47;16.84;82.50
61351;DHT22;47119;49.130;9.218;2022-10-19T04:56:19;16.84;82.43
61351;DHT22;47119;49.130;9.218;2022-10-19T04:58:54;16.84;82.42
61351;DHT22;47119;49.130;9.218;2022-10-19T05:01:24;16.84;82.31
61351;DHT22;47119;49.130;9.218;2022-10-19T05:03:53;16.84;82.41
61351;DHT22;47119;49.130;9.218;2022-10-19T05:06:23;16.81;82.44
61351;DHT22;47119;49.130;9.218;2022-10-19T05:08:51;16.81;82.37
61351;DHT22;47119;49.130;9.218;2022-10-19T05:11:19;16.78;82.39
61351;DHT22;47119;49.130;9.218;2022-10-19T05:13:48;16.81;82.29
61351;DHT22;47119;49.130;9.218;2022-10-19T05:16:19;16.81;82.19
61351;DHT22;47119;49.130;9.218;2022-10-19T05:18:47;16.78;82.31
61351;DHT22;47119;49.130;9.218;2022-10-19T05:21:16;16.81;82.17
61351;DHT22;47119;49.130;9.218;2022-10-19T05:23:45;16.80;82.20
61351;DHT22;47119;49.130;9.218;2022-10-19T05:26:13;16.80;82.21
61351;DHT22;47119;49.130;9.218;2022-10-19T05:28:48;16.81;82.13
61351;DHT22;47119;49.130;9.218;2022-10-19T05:31:22;16.82;82.11
61351;DHT22;47119;49.130;9.218;2022-10-19T05:33:50;16.82;82.07
61351;DHT22;47119;49.130;9.218;2022-10-19T05:36:19;16.85;82.03
61351;DHT22;47119;49.130;9.218;2022-10-19T05:38:50;16.85;82.09
61351;DHT22;47119;49.130;9.218;2022-10-19T05:41:20;16.81;82.00
61351;DHT22;47119;49.130;9.218;2022-10-19T05:43:53;16.81;82.13
61351;DHT22;47119;49.130;9.218;2022-10-19T05:46:25;16.80;82.12
61351;DHT22;47119;49.130;9.218;2022-10-19T05:48:57;16.80;82.09
61351;DHT22;47119;49.130;9.218;2022-10-19T05:51:26;16.78;82.09
61351;DHT22;47119;49.130;9.218;2022-10-19T05:53:56;16.81;82.08
61351;DHT22;47119;49.130;9.218;2022-10-19T05:56:26;16.82;81.85
61351;DHT22;47119;49.130;9.218;2022-10-19T05:59:00;16.78;82.03
61351;DHT22;47119;49.130;9.218;2022-10-19T06:01:30;16.74;82.03
61351;DHT22;47119;49.130;9.218;2022-10-19T06:03:58;16.80;82.01
61351;DHT22;47119;49.130;9.218;2022-10-19T06:06:29;16.81;81.96
61351;DHT22;47119;49.130;9.218;2022-10-19T06:08:57;16.78;81.85
61351;DHT22;47119;49.130;9.218;2022-10-19T06:11:30;16.75;82.03
61351;DHT22;47119;49.130;9.218;2022-10-19T06:14:06;16.75;81.97
61351;DHT22;47119;49.130;9.218;2022-10-19T06:16:35;16.75;82.10
61351;DHT22;47119;49.130;9.218;2022-10-19T06:19:03;16.75;81.95
61351;DHT22;47119;49.130;9.218;2022-10-19T06:21:32;16.75;81.99
61351;DHT22;47119;49.130;9.218;2022-10-19T06:24:02;16.74;82.05
61351;DHT22;47119;49.130;9.218;2022-10-19T06:26:34;16.74;81.99
61351;DHT22;47119;49.130;9.218;2022-10-19T06:29:03;16.75;81.94
61351;DHT22;47119;49.130;9.218;2022-10-19T06:31:32;16.80;81.97
61351;DHT22;47119;49.130;9.218;2022-10-19T06:34:03;16.77;81.87
61351;DHT22;47119;49.130;9.218;2022-10-19T06:36:31;16.75;81.92
61351;DHT22;47119;49.130;9.218;2022-10-19T06:39:00;16.75;81.92
61351;DHT22;47119;49.130;9.218;2022-10-19T06:41:28;16.77;81.96
61351;DHT22;47119;49.130;9.218;2022-10-19T06:44:07;16.77;81.91
61351;DHT22;47119;49.130;9.218;2022-10-19T06:46:35;16.78;82.01
61351;DHT22;47119;49.130;9.218;2022-10-19T06:49:03;16.77;81.98
61351;DHT22;47119;49.130;9.218;2022-10-19T06:51:31;16.77;81.86
61351;DHT22;47119;49.130;9.218;2022-10-19T06:54:01;16.74;81.88
61351;DHT22;47119;49.130;9.218;2022-10-19T06:56:31;16.75;81.75
61351;DHT22;47119;49.130;9.218;2022-10-19T06:59:03;16.74;81.75
61351;DHT22;47119;49.130;9.218;2022-10-19T07:01:31;16.77;81.85
61351;DHT22;47119;49.130;9.218;2022-10-19T07:04:00;16.78;81.62
61351;DHT22;47119;49.130;9.218;2022-10-19T07:06:27;16.77;81.66
61351;DHT22;47119;49.130;9.218;2022-10-19T07:08:56;16.80;81.67
61351;DHT22;47119;49.130;9.218;2022-10-19T07:11:26;16.81;81.49
61351;DHT22;47119;49.130;9.218;2022-10-19T07:13:58;16.84;81.61
61351;DHT22;47119;49.130;9.218;2022-10-19T07:16:28;16.82;81.57
61351;DHT22;47119;49.130;9.218;2022-10-19T07:18:59;16.81;81.53
61351;DHT22;47119;49.130;9.218;2022-10-19T07:21:26;16.85;81.36
61351;DHT22;47119;49.130;9.218;2022-10-19T07:23:55;16.84;81.60
61351;DHT22;47119;49.130;9.218;2022-10-19T07:26:26;16.88;81.50
61351;DHT22;47119;49.130;9.218;2022-10-19T07:28:58;16.88;81.54
61351;DHT22;47119;49.130;9.218;2022-10-19T07:31:27;16.88;81.47
61351;DHT22;47119;49.130;9.218;2022-10-19T07:33:59;16.88;81.36
61351;DHT22;47119;49.130;9.218;2022-10-19T07:36:33;16.88;81.34
61351;DHT22;47119;49.130;9.218;2022-10-19T07:39:02;16.87;81.49
61351;DHT22;47119;49.130;9.218;2022-10-19T07:41:33;16.85;81.28
61351;DHT22;47119;49.130;9.218;2022-10-19T07:44:03;16.87;81.34
61351;DHT22;47119;49.130;9.218;2022-10-19T07:46:35;16.87;81.35
61351;DHT22;47119;49.130;9.218;2022-10-19T07:49:09;16.85;81.30
61351;DHT22;47119;49.130;9.218;2022-10-19T07:51:43;16.89;81.27
61351;DHT22;47119;49.130;9.218;2022-10-19T07:54:14;16.91;81.22
61351;DHT22;47119;49.130;9.218;2022-10-19T07:56:43;16.89;81.18
61351;DHT22;47119;49.130;9.218;2022-10-19T07:59:10;16.91;81.14
61351;DHT22;47119;49.130;9.218;2022-10-19T08:01:39;16.89;81.18
61351;DHT22;47119;49.130;9.218;2022-10-19T08:04:11;16.92;81.20
61351;DHT22;47119;49.130;9.218;2022-10-19T08:06:38;16.91;81.22
61351;DHT22;47119;49.130;9.218;2022-10-19T08:09:08;16.92;81.33
61351;DHT22;47119;49.130;9.218;2022-10-19T08:11:38;16.91;81.19
61351;DHT22;47119;49.130;9.218;2022-10-19T08:14:05;16.91;81.12
61351;DHT22;47119;49.130;9.218;2022-10-19T08:16:34;16.91;81.12
61351;DHT22;47119;49.130;9.218;2022-10-19T08:19:06;16.92;81.18
61351;DHT22;47119;49.130;9.218;2022-10-19T08:21:42;16.95;81.15
61351;DHT22;47119;49.130;9.218;2022-10-19T08:24:14;16.91;81.09
61351;DHT22;47119;49.130;9.218;2022-10-19T08:26:42;16.92;81.13
61351;DHT22;47119;49.130;9.218;2022-10-19T08:29:12;16.89;80.95
61351;DHT22;47119;49.130;9.218;2022-10-19T08:31:41;16.89;81.01
61351;DHT22;47119;49.130;9.218;2022-10-19T08:34:09;16.92;81.09
61351;DHT22;47119;49.130;9.218;2022-10-19T08:36:38;16.94;80.91
61351;DHT22;47119;49.130;9.218;2022-10-19T08:39:08;16.92;81.02
61351;DHT22;47119;49.130;9.218;2022-10-19T08:41:49;16.88;81.04
61351;DHT22;47119;49.130;9.218;2022-10-19T08:44:53;16.87;80.81
61351;DHT22;47119;49.130;9.218;2022-10-19T08:47:55;16.81;80.96
61351;DHT22;47119;49.130;9.218;2022-10-19T08:50:41;16.82;80.97
61351;DHT22;47119;49.130;9.218;2022-10-19T08:53:14;16.82;81.04
61351;DHT22;47119;49.130;9.218;2022-10-19T08:55:55;16.80;80.74
61351;DHT22;47119;49.130;9.218;2022-10-19T08:58:51;16.81;80.91
61351;DHT22;47119;49.130;9.218;2022-10-19T09:01:33;16.81;80.74
61351;DHT22;47119;49.130;9.218;2022-10-19T09:04:17;16.87;80.73
61351;DHT22;47119;49.130;9.218;2022-10-19T09:07:15;16.87;80.92
61351;DHT22;47119;49.130;9.218;2022-10-19T09:09:54;16.92;80.71
61351;DHT22;47119;49.130;9.218;2022-10-19T09:12:32;16.91;80.72
61351;DHT22;47119;49.130;9.218;2022-10-19T09:15:11;16.91;80.84
61351;DHT22;47119;49.130;9.218;2022-10-19T09:17:42;16.88;80.73
61351;DHT22;47119;49.130;9.218;2022-10-19T09:20:18;16.88;80.86
61351;DHT22;47119;49.130;9.218;2022-10-19T09:26:12;16.91;80.75
61351;DHT22;47119;49.130;9.218;2022-10-19T09:28:47;16.91;80.71
61351;DHT22;47119;49.130;9.218;2022-10-19T09:31:27;16.92;80.56
61351;DHT22;47119;49.130;9.218;2022-10-19T09:33:59;16.96;80.39
61351;DHT22;47119;49.130;9.218;2022-10-19T09:36:33;16.96;80.41
61351;DHT22;47119;49.130;9.218;2022-10-19T09:39:04;16.95;80.13
61351;DHT22;47119;49.130;9.218;2022-10-19T09:41:36;16.98;80.25
61351;DHT22;47119;49.130;9.218;2022-10-19T09:44:11;16.98;80.43
61351;DHT22;47119;49.130;9.218;2022-10-19T09:46:44;16.99;80.42
61351;DHT22;47119;49.130;9.218;2022-10-19T09:49:17;16.98;80.45
61351;DHT22;47119;49.130;9.218;2022-10-19T09:51:48;17.02;80.47
61351;DHT22;47119;49.130;9.218;2022-10-19T09:54:31;17.04;80.52
61351;DHT22;47119;49.130;9.218;2022-10-19T09:57:04;17.01;80.47
61351;DHT22;47119;49.130;9.218;2022-10-19T09:59:35;17.02;80.45
61351;DHT22;47119;49.130;9.218;2022-10-19T10:02:13;17.02;80.41
61351;DHT22;47119;49.130;9.218;2022-10-19T10:04:45;17.01;80.39
61351;DHT22;47119;49.130;9.218;2022-10-19T10:07:15;17.05;80.43
61351;DHT22;47119;49.130;9.218;2022-10-19T10:09:44;17.04;80.37
61351;DHT22;47119;49.130;9.218;2022-10-19T10:12:14;17.05;80.47
61351;DHT22;47119;49.130;9.218;2022-10-19T10:14:42;17.08;80.36
61351;DHT22;47119;49.130;9.218;2022-10-19T10:17:15;17.08;80.37
61351;DHT22;47119;49.130;9.218;2022-10-19T10:19:51;17.09;80.10
61351;DHT22;47119;49.130;9.218;2022-10-19T10:22:31;17.07;80.37
61351;DHT22;47119;49.130;9.218;2022-10-19T10:25:00;17.12;80.45
61351;DHT22;47119;49.130;9.218;2022-10-19T10:27:53;17.15;80.34
61351;DHT22;47119;49.130;9.218;2022-10-19T10:30:21;17.15;80.40
61351;DHT22;47119;49.130;9.218;2022-10-19T10:32:54;17.15;80.24
61351;DHT22;47119;49.130;9.218;2022-10-19T10:35:24;17.16;80.31
61351;DHT22;47119;49.130;9.218;2022-10-19T10:38:05;17.15;80.35
61351;DHT22;47119;49.130;9.218;2022-10-19T10:40:38;17.16;80.12
61351;DHT22;47119;49.130;9.218;2022-10-19T10:43:14;17.18;80.18
61351;DHT22;47119;49.130;9.218;2022-10-19T10:45:46;17.16;80.16
61351;DHT22;47119;49.130;9.218;2022-10-19T10:48:23;17.19;80.19
61351;DHT22;47119;49.130;9.218;2022-10-19T10:50:56;17.20;80.34
61351;DHT22;47119;49.130;9.218;2022-10-19T10:53:36;17.19;80.17
61351;DHT22;47119;49.130;9.218;2022-10-19T10:56:24;17.20;80.12
61351;DHT22;47119;49.130;9.218;2022-10-19T10:59:00;17.20;80.13
61351;DHT22;47119;49.130;9.218;2022-10-19T11:01:58;17.23;80.29
61351;DHT22;47119;49.130;9.218;2022-10-19T11:04:32;17.26;80.18
61351;DHT22;47119;49.130;9.218;2022-10-19T11:07:13;17.28;80.29
61351;DHT22;47119;49.130;9.218;2022-10-19T11:09:49;17.28;80.22
61351;DHT22;47119;49.130;9.218;2022-10-19T11:12:34;17.29;80.21
61351;DHT22;47119;49.130;9.218;2022-10-19T11:15:15;17.35;80.18
61351;DHT22;47119;49.130;9.218;2022-10-19T11:17:54;17.35;80.08
61351;DHT22;47119;49.130;9.218;2022-10-19T11:20:29;17.32;80.24
61351;DHT22;47119;49.130;9.218;2022-10-19T11:23:05;17.33;80.03
61351;DHT22;47119;49.130;9.218;2022-10-19T11:25:49;17.33;79.85
61351;DHT22;47119;49.130;9.218;2022-10-19T11:28:46;17.32;80.07
61351;DHT22;47119;49.130;9.218;2022-10-19T11:31:29;17.30;80.13
61351;DHT22;47119;49.130;9.218;2022-10-19T11:34:06;17.32;79.93
61351;DHT22;47119;49.130;9.218;2022-10-19T11:36:55;17.30;80.22
61351;DHT22;47119;49.130;9.218;2022-10-19T11:39:40;17.30;80.14
61351;DHT22;47119;49.130;9.218;2022-10-19T11:42:29;17.29;79.89
61351;DHT22;47119;49.130;9.218;2022-10-19T11:45:18;17.28;80.04
61351;DHT22;47119;49.130;9.218;2022-10-19T11:48:23;17.30;79.98
61351;DHT22;47119;49.130;9.218;2022-10-19T11:51:05;17.29;79.86
61351;DHT22;47119;49.130;9.218;2022-10-19T11:53:47;17.32;79.95
61351;DHT22;47119;49.130;9.218;2022-10-19T11:56:30;17.32;80.02
61351;DHT22;47119;49.130;9.218;2022-10-19T11:59:10;17.30;79.91
61351;DHT22;47119;49.130;9.218;2022-10-19T12:01:50;17.30;79.83
61351;DHT22;47119;49.130;9.218;2022-10-19T12:04:45;17.32;79.86
61351;DHT22;47119;49.130;9.218;2022-10-19T12:07:34;17.35;79.87
61351;DHT22;47119;49.130;9.218;2022-10-19T12:10:28;17.29;79.70
61351;DHT22;47119;49.130;9.218;2022-10-19T12:13:03;17.32;79.86
61351;DHT22;47119;49.130;9.218;2022-10-19T12:15:38;17.33;79.87
61351;DHT22;47119;49.130;9.218;2022-10-19T12:18:14;17.30;79.87
61351;DHT22;47119;49.130;9.218;2022-10-19T12:20:50;17.33;79.86
61351;DHT22;47119;49.130;9.218;2022-10-19T12:23:24;17.36;79.83
61351;DHT22;47119;49.130;9.218;2022-10-19T12:26:00;17.33;79.76
61351;DHT22;47119;49.130;9.218;2022-10-19T12:28:32;17.33;79.74
61351;DHT22;47119;49.130;9.218;2022-10-19T12:31:06;17.32;79.76
61351;DHT22;47119;49.130;9.218;2022-10-19T12:33:42;17.33;79.75
61351;DHT22;47119;49.130;9.218;2022-10-19T12:36:23;17.35;79.70
61351;DHT22;47119;49.130;9.218;2022-10-19T12:39:04;17.35;79.74
61351;DHT22;47119;49.130;9.218;2022-10-19T12:41:44;17.35;79.65
61351;DHT22;47119;49.130;9.218;2022-10-19T12:44:32;17.36;79.63
61351;DHT22;47119;49.130;9.218;2022-10-19T12:47:25;17.35;79.71
61351;DHT22;47119;49.130;9.218;2022-10-19T12:49:56;17.36;79.75
61351;DHT22;47119;49.130;9.218;2022-10-19T12:52:38;17.36;79.79
61351;DHT22;47119;49.130;9.218;2022-10-19T12:55:23;17.36;79.89
61351;DHT22;47119;49.130;9.218;2022-10-19T12:57:59;17.36;79.79
61351;DHT22;47119;49.130;9.218;2022-10-19T13:00:37;17.36;79.72
61351;DHT22;47119;49.130;9.218;2022-10-19T13:03:06;17.40;79.68
61351;DHT22;47119;49.130;9.218;2022-10-19T13:05:54;17.35;79.80
61351;DHT22;47119;49.130;9.218;2022-10-19T13:08:27;17.40;79.76
61351;DHT22;47119;49.130;9.218;2022-10-19T13:11:23;17.43;79.75
61351;DHT22;47119;49.130;9.218;2022-10-19T13:13:57;17.39;79.83
61351;DHT22;47119;49.130;9.218;2022-10-19T13:16:54;17.40;79.79
61351;DHT22;47119;49.130;9.218;2022-10-19T13:19:23;17.45;79.76
61351;DHT22;47119;49.130;9.218;2022-10-19T13:22:22;17.40;79.80
61351;DHT22;47119;49.130;9.218;2022-10-19T13:25:22;17.42;79.80
61351;DHT22;47119;49.130;9.218;2022-10-19T13:27:53;17.42;79.69
61351;DHT22;47119;49.130;9.218;2022-10-19T13:31:02;17.42;79.74
61351;DHT22;47119;49.130;9.218;2022-10-19T13:33:54;17.43;79.59
61351;DHT22;47119;49.130;9.218;2022-10-19T13:36:25;17.39;79.69
61351;DHT22;47119;49.130;9.218;2022-10-19T13:39:04;17.45;79.66
61351;DHT22;47119;49.130;9.218;2022-10-19T13:41:52;17.43;79.76
61351;DHT22;47119;49.130;9.218;2022-10-19T13:44:23;17.45;79.78
61351;DHT22;47119;49.130;9.218;2022-10-19T13:50:17;17.40;79.79
61351;DHT22;47119;49.130;9.218;2022-10-19T13:53:06;17.40;79.91
61351;DHT22;47119;49.130;9.218;2022-10-19T14:00:00;17.43;79.68
61351;DHT22;47119;49.130;9.218;2022-10-19T14:02:59;17.42;79.70
61351;DHT22;47119;49.130;9.218;2022-10-19T14:05:56;17.42;79.67
61351;DHT22;47119;49.130;9.218;2022-10-19T14:09:03;17.43;79.65
61351;DHT22;47119;49.130;9.218;2022-10-19T14:11:42;17.45;79.71
61351;DHT22;47119;49.130;9.218;2022-10-19T14:14:22;17.42;79.66
61351;DHT22;47119;49.130;9.218;2022-10-19T14:16:54;17.42;79.80
61351;DHT22;47119;49.130;9.218;2022-10-19T14:19:39;17.42;79.69
61351;DHT22;47119;49.130;9.218;2022-10-19T14:22:35;17.42;79.71
61351;DHT22;47119;49.130;9.218;2022-10-19T14:25:05;17.40;79.80
61351;DHT22;47119;49.130;9.218;2022-10-19T14:27:33;17.42;79.73
61351;DHT22;47119;49.130;9.218;2022-10-19T14:30:02;17.39;79.58
61351;DHT22;47119;49.130;9.218;2022-10-19T14:32:32;17.43;79.55
61351;DHT22;47119;49.130;9.218;2022-10-19T14:35:17;17.40;79.50
61351;DHT22;47119;49.130;9.218;2022-10-19T14:37:48;17.42;79.55
61351;DHT22;47119;49.130;9.218;2022-10-19T14:40:24;17.42;79.53
61351;DHT22;47119;49.130;9.218;2022-10-19T14:42:54;17.40;79.65
61351;DHT22;47119;49.130;9.218;2022-10-19T14:45:25;17.45;79.58
61351;DHT22;47119;49.130;9.218;2022-10-19T14:47:57;17.45;79.59
61351;DHT22;47119;49.130;9.218;2022-10-19T14:50:39;17.45;79.47
61351;DHT22;47119;49.130;9.218;2022-10-19T14:53:25;17.47;79.64
61351;DHT22;47119;49.130;9.218;2022-10-19T14:56:03;17.46;80.14
61351;DHT22;47119;49.130;9.218;2022-10-19T14:58:38;17.43;80.41
61351;DHT22;47119;49.130;9.218;2022-10-19T15:01:17;17.42;80.79
61351;DHT22;47119;49.130;9.218;2022-10-19T15:03:47;17.40;81.06
61351;DHT22;47119;49.130;9.218;2022-10-19T15:06:18;17.40;81.10
61351;DHT22;47119;49.130;9.218;2022-10-19T15:08:51;17.39;81.15
61351;DHT22;47119;49.130;9.218;2022-10-19T15:11:29;17.38;80.97
61351;DHT22;47119;49.130;9.218;2022-10-19T15:14:04;17.40;81.01
61351;DHT22;47119;49.130;9.218;2022-10-19T15:16:42;17.38;80.98
61351;DHT22;47119;49.130;9.218;2022-10-19T15:19:20;17.40;81.05
61351;DHT22;47119;49.130;9.218;2022-10-19T15:22:15;17.39;81.32
61351;DHT22;47119;49.130;9.218;2022-10-19T15:24:57;17.39;81.26
61351;DHT22;47119;49.130;9.218;2022-10-19T15:27:32;17.42;80.92
61351;DHT22;47119;49.130;9.218;2022-10-19T15:30:02;17.38;81.08
61351;DHT22;47119;49.130;9.218;2022-10-19T15:32:36;17.39;81.11
61351;DHT22;47119;49.130;9.218;2022-10-19T15:35:15;17.38;81.23
61351;DHT22;47119;49.130;9.218;2022-10-19T15:37:48;17.40;80.94
61351;DHT22;47119;49.130;9.218;2022-10-19T15:40:19;17.35;81.26
61351;DHT22;47119;49.130;9.218;2022-10-19T15:42:51;17.36;81.06
61351;DHT22;47119;49.130;9.218;2022-10-19T15:45:29;17.36;80.87
61351;DHT22;47119;49.130;9.218;2022-10-19T15:48:21;17.33;81.36
61351;DHT22;47119;49.130;9.218;2022-10-19T15:54:14;17.32;81.39
61351;DHT22;47119;49.130;9.218;2022-10-19T15:56:45;17.35;81.06
61351;DHT22;47119;49.130;9.218;2022-10-19T15:59:17;17.30;81.43
61351;DHT22;47119;49.130;9.218;2022-10-19T16:01:47;17.32;81.08
61351;DHT22;47119;49.130;9.218;2022-10-19T16:04:15;17.30;81.17
61351;DHT22;47119;49.130;9.218;2022-10-19T16:06:43;17.30;81.28
61351;DHT22;47119;49.130;9.218;2022-10-19T16:09:17;17.30;81.18
61351;DHT22;47119;49.130;9.218;2022-10-19T16:11:46;17.32;80.99
61351;DHT22;47119;49.130;9.218;2022-10-19T16:14:13;17.29;80.79
61351;DHT22;47119;49.130;9.218;2022-10-19T16:16:41;17.26;81.19
61351;DHT22;47119;49.130;9.218;2022-10-19T16:19:08;17.26;81.32
61351;DHT22;47119;49.130;9.218;2022-10-19T16:21:38;17.28;80.94
61351;DHT22;47119;49.130;9.218;2022-10-19T16:24:07;17.28;81.09
61351;DHT22;47119;49.130;9.218;2022-10-19T16:26:34;17.26;81.10
61351;DHT22;47119;49.130;9.218;2022-10-19T16:29:06;17.25;81.09
61351;DHT22;47119;49.130;9.218;2022-10-19T16:31:36;17.25;81.00